Latest Weather Observations for Wulungurru (Kintore)

IDD60801

Issued at 2:31 pm CST Saturday 28 March 2015 (issued every 30 minutes, with the page automatically refreshed every 10 minutes)

About weather observations | Map of weather stations | Latest weather observations for NT | Other Formats
Station Details ID: 015664 Name: WALUNGURRU AIRPORT Lat: -23.27 Lon: 129.38 Height: 454.3 m
Data from the previous 72 hours. | See also: Recent months at Wulungurru (Kintore)
Date/Time
CST
Temp
°C
App
Temp
°C
Dew
Point
Rel
Hum
%
Delta-T
°C
Wind Press
QNH
hPa
Press
MSL
hPa
Rain
since 9 am
mm
Dir
 
Spd
km/h
Gust
km/h
Spd
kts
Gust
kts
28/02:30pm 34.1 29.9 1.8 13 16.7 NNE 13 20 7 11 1016.3 - 0.0
28/02:00pm 33.5 29.2 1.3 13 16.4 NNE 13 19 7 10 1016.9 - 0.0
28/01:30pm 33.0 29.6 2.0 14 15.9 N 9 15 5 8 1017.3 - 0.0
28/01:00pm 33.4 29.1 1.3 13 16.3 NE 13 35 7 19 1017.7 - 0.0
28/12:30pm 33.1 28.8 1.0 13 16.2 NNE 13 19 7 10 1018.4 - 0.0
28/12:00pm 31.6 26.5 0.9 14 15.3 NE 17 30 9 16 1019.1 1016.2 0.0
28/11:30am 31.4 26.7 0.7 14 15.3 ENE 15 24 8 13 1019.4 - 0.0
28/11:00am 30.6 25.5 1.0 15 14.7 ENE 17 26 9 14 1019.4 - 0.0
28/10:30am 29.4 23.8 0.1 15 14.3 NNE 19 24 10 13 1020.0 - 0.0
28/10:00am 28.5 23.1 1.1 17 13.5 NE 19 30 10 16 1020.0 - 0.0
28/09:30am 26.5 20.4 0.3 18 12.5 ENE 22 28 12 15 1019.9 - 0.0
28/09:00am 25.6 19.0 -0.5 18 12.2 ENE 24 32 13 17 1019.9 1017.0 0.0
28/08:30am 24.5 18.3 -0.6 19 11.6 ENE 22 30 12 16 1019.6 - 0.0
28/08:00am 24.2 17.5 -0.9 19 11.5 ENE 24 32 13 17 1019.4 - 0.0
28/07:30am 23.6 17.6 -1.3 19 11.3 ENE 20 28 11 15 1019.1 - 0.0
28/07:00am 23.4 17.0 -1.5 19 11.3 ENE 22 30 12 16 1018.8 - 0.0
28/06:30am 23.4 16.6 -1.5 19 11.3 ENE 24 32 13 17 1018.3 - 0.0
28/06:00am 23.7 17.4 -1.3 19 11.4 ENE 22 32 12 17 1017.9 1015.0 0.0
28/05:30am 23.9 17.7 -0.4 20 11.3 ENE 22 30 12 16 1017.6 - 0.0
28/05:00am 24.3 18.1 -0.1 20 11.4 E 22 30 12 16 1017.5 - 0.0
28/04:30am 24.7 19.1 0.9 21 11.4 E 20 26 11 14 1017.3 - 0.0
28/04:00am 25.4 19.5 1.5 21 11.6 E 22 32 12 17 1017.4 - 0.0
28/03:30am 25.9 20.0 1.9 21 11.8 E 22 30 12 16 1017.7 - 0.0
28/03:00am 25.9 20.8 3.2 23 11.4 E 19 24 10 13 1017.9 1015.0 0.0
28/02:30am 26.3 21.3 3.5 23 11.5 E 19 24 10 13 1018.0 - 0.0
28/02:00am 26.7 21.1 3.2 22 11.8 E 22 28 12 15 1018.0 - 0.0
28/01:30am 28.1 22.5 3.7 21 12.5 E 22 35 12 19 1017.9 - 0.0
28/01:00am 27.5 23.8 4.5 23 11.9 ESE 13 19 7 10 1018.3 - 0.0
28/12:30am 28.1 23.6 4.4 22 12.3 ESE 17 20 9 11 1018.5 - 0.0
28/12:00am 28.8 24.4 5.0 22 12.5 ESE 17 24 9 13 1018.6 1015.8 0.0
 
Date/Time
CST
Temp
°C
App
Temp
°C
Dew
Point
Rel
Hum
%
Delta-T
°C
Wind Press
QNH
hPa
Press
MSL
hPa
Rain
since 9 am
mm
Dir
 
Spd
km/h
Gust
km/h
Spd
kts
Gust
kts
27/11:30pm 29.9 26.3 5.2 21 13.2 E 13 17 7 9 1018.6 - 0.0
27/11:00pm 30.3 26.5 5.6 21 13.3 E 15 20 8 11 1018.8 - 0.0
27/10:30pm 29.8 26.8 5.8 22 12.9 E 11 13 6 7 1018.6 - 0.0
27/10:00pm 29.2 25.9 6.6 24 12.3 E 13 15 7 8 1018.8 - 0.0
27/09:30pm 29.3 26.3 6.0 23 12.5 E 11 13 6 7 1019.0 - 0.0
27/09:00pm 29.7 27.0 5.7 22 12.9 E 9 13 5 7 1018.9 1016.0 0.0
27/08:30pm 30.6 27.6 5.8 21 13.4 ENE 11 13 6 7 1018.8 - 0.0
27/08:00pm 31.3 28.2 5.7 20 13.9 NE 11 17 6 9 1018.5 - 0.0
27/07:30pm 31.7 28.5 5.3 19 14.2 ENE 11 17 6 9 1017.9 - 0.0
27/07:00pm 32.3 28.7 5.0 18 14.7 E 13 19 7 10 1017.5 - 0.0
27/06:30pm 32.7 29.2 5.3 18 14.8 E 13 19 7 10 1017.4 - 0.0
27/06:00pm 33.1 29.6 5.6 18 15.0 E 13 20 7 11 1017.2 1014.3 0.0
27/05:30pm 33.3 29.3 5.0 17 15.3 ENE 15 19 8 10 1017.0 - 0.0
27/05:00pm 34.0 30.1 5.5 17 15.6 ENE 15 22 8 12 1016.9 - 0.0
27/04:30pm 34.1 28.9 5.6 17 15.6 ESE 22 28 12 15 1016.9 - 0.0
27/04:00pm 34.4 30.4 5.0 16 16.0 E 15 22 8 12 1017.1 - 0.0
27/03:30pm 34.0 30.1 5.5 17 15.6 E 15 30 8 16 1017.3 - 0.0
27/03:00pm 34.1 30.3 5.6 17 15.6 ENE 15 28 8 15 1017.8 1014.9 0.0
27/02:30pm 33.2 29.4 5.7 18 15.0 ENE 15 26 8 14 1018.3 - 0.0
27/02:00pm 33.1 28.3 5.6 18 15.0 E 20 26 11 14 1019.0 - 0.0
27/01:30pm 32.3 28.1 5.7 19 14.5 E 17 33 9 18 1019.6 - 0.0
27/01:00pm 30.9 26.0 5.3 20 13.7 E 20 28 11 15 1020.3 - 0.0
27/12:30pm 30.6 26.0 5.8 21 13.4 E 19 30 10 16 1021.0 - 0.0
27/12:00pm 30.6 26.0 5.8 21 13.4 E 19 32 10 17 1021.7 1018.8 0.0
27/11:30am 29.3 24.5 5.4 22 12.7 ENE 20 28 11 15 1022.4 - 0.0
27/11:00am 28.4 23.5 5.3 23 12.2 ENE 20 32 11 17 1022.8 - 0.0
27/10:30am 27.2 21.6 5.5 25 11.4 ENE 24 33 13 18 1023.0 - 0.0
27/10:00am 26.5 20.4 4.9 25 11.2 ENE 26 35 14 19 1023.3 - 0.0
27/09:30am 25.7 19.2 4.8 26 10.8 ENE 28 37 15 20 1023.3 - 0.0
27/09:00am 24.2 19.4 4.6 28 9.9 E 19 28 10 15 1023.3 1020.5 0.0
27/08:30am 23.5 18.5 4.5 29 9.6 E 20 32 11 17 1023.0 - 0.0
27/08:00am 23.3 17.5 4.3 29 9.6 E 24 33 13 18 1022.7 - 0.0
27/07:30am 23.2 17.4 4.2 29 9.5 E 24 35 13 19 1022.4 - 0.0
27/07:00am 22.9 16.6 3.9 29 9.5 E 26 32 14 17 1022.1 - 0.0
27/06:30am 22.6 17.1 4.2 30 9.2 E 22 30 12 16 1021.7 - 0.0
27/06:00am 22.3 16.4 3.9 30 9.1 E 24 33 13 18 1021.5 1018.6 0.0
27/05:30am 22.7 17.2 3.8 29 9.4 ESE 22 32 12 17 1021.3 - 0.0
27/05:00am 22.8 16.9 3.9 29 9.4 ESE 24 33 13 18 1020.9 - 0.0
27/04:30am 23.1 17.1 3.6 28 9.7 ESE 24 32 13 17 1020.8 - 0.0
27/04:00am 23.9 17.5 3.2 26 10.3 E 26 41 14 22 1020.8 - 0.0
27/03:30am 24.0 17.6 3.3 26 10.3 E 26 43 14 23 1020.7 - 0.0
27/03:00am 24.3 17.2 3.6 26 10.3 E 30 44 16 24 1020.7 1017.9 0.0
27/02:30am 24.6 18.3 3.8 26 10.5 E 26 37 14 20 1020.9 - 0.0
27/02:00am 25.0 17.5 3.6 25 10.8 E 32 39 17 21 1020.9 - 0.0
27/01:30am 25.7 17.7 3.6 24 11.2 E 35 50 19 27 1021.2 - 0.0
27/01:19am 25.8 18.3 3.7 24 11.2 ESE 32 50 17 27 1021.2 - 0.0
27/01:00am 25.8 18.2 3.7 24 11.2 ESE 33 46 18 25 1021.2 - 0.0
27/12:36am 25.9 18.5 3.8 24 11.2 ESE 32 50 17 27 1021.3 - 0.0
27/12:30am 26.0 18.6 3.9 24 11.2 ESE 32 48 17 26 1021.2 - 0.0
27/12:25am 26.0 19.0 3.9 24 11.2 ESE 30 48 16 26 1021.2 - 0.0
27/12:00am 26.5 18.9 3.7 23 11.6 ESE 33 46 18 25 1021.3 1018.4 0.0
 
Date/Time
CST
Temp
°C
App
Temp
°C
Dew
Point
Rel
Hum
%
Delta-T
°C
Wind Press
QNH
hPa
Press
MSL
hPa
Rain
since 9 am
mm
Dir
 
Spd
km/h
Gust
km/h
Spd
kts
Gust
kts
26/11:30pm 26.6 19.2 3.8 23 11.6 ESE 32 46 17 25 1021.7 - 0.0
26/11:00pm 26.9 19.8 3.4 22 11.9 ESE 30 39 16 21 1021.7 - 0.0
26/10:30pm 27.4 19.4 3.8 22 12.1 ESE 35 43 19 23 1021.6 - 0.0
26/10:12pm 27.9 19.9 3.6 21 12.4 SE 35 54 19 29 1021.7 - 0.0
26/10:00pm 27.8 20.3 3.5 21 12.4 SE 32 41 17 22 1021.6 - 0.0
26/09:30pm 27.9 21.3 4.2 22 12.3 SE 28 39 15 21 1021.3 - 0.0
26/09:07pm 28.2 21.1 3.8 21 12.6 SE 30 48 16 26 1021.0 - 0.0
26/09:00pm 28.3 20.9 3.9 21 12.6 SE 32 43 17 23 1020.9 1018.1 0.0
26/08:30pm 28.7 22.1 4.2 21 12.7 SE 28 39 15 21 1020.5 - 0.0
26/08:00pm 29.1 22.4 3.9 20 13.1 SE 28 39 15 21 1020.0 - 0.0
26/07:30pm 29.7 22.6 3.6 19 13.5 SE 30 41 16 22 1019.7 - 0.0
26/07:03pm 30.8 24.0 2.9 17 14.4 SE 28 46 15 25 1019.2 - 0.0
26/07:00pm 31.0 24.6 3.1 17 14.4 SE 26 46 14 25 1019.2 - 0.0
26/06:30pm 32.1 26.4 3.1 16 15.1 SE 22 30 12 16 1018.9 - 0.0
26/06:00pm 32.8 27.2 3.7 16 15.3 SE 22 33 12 18 1018.6 1015.8 0.0
26/05:30pm 33.5 27.9 3.3 15 15.9 SE 22 28 12 15 1018.5 - 0.0
26/05:00pm 33.7 28.1 3.5 15 16.0 ESE 22 35 12 19 1018.4 - 0.0
26/04:30pm 33.8 28.8 3.6 15 16.0 SE 19 30 10 16 1018.4 - 0.0
26/04:00pm 34.8 29.8 3.4 14 16.7 E 19 30 10 16 1018.8 - 0.0
26/03:30pm 34.8 29.8 3.4 14 16.7 E 19 44 10 24 1018.8 - 0.0
26/03:00pm 34.2 29.1 2.9 14 16.4 SE 19 24 10 13 1019.1 1016.2 0.0
26/02:30pm 34.0 28.3 2.8 14 16.3 E 22 33 12 18 1019.5 - 0.0
26/02:00pm 33.7 27.7 3.5 15 16.0 E 24 35 13 19 1019.9 - 0.0
26/01:30pm 32.9 27.6 2.9 15 15.6 E 20 33 11 18 1020.3 - 0.0
26/01:00pm 32.6 27.8 2.6 15 15.5 SE 17 26 9 14 1020.9 - 0.0
26/12:30pm 31.3 26.1 2.5 16 14.8 SE 19 28 10 15 1021.7 - 0.0
26/12:00pm 29.2 23.4 2.5 18 13.5 SE 22 32 12 17 1022.2 1019.3 0.0
26/11:30am 27.9 22.1 2.2 19 12.8 SE 22 30 12 16 1022.8 - 0.0
26/11:00am 26.2 21.4 2.8 22 11.7 ESE 17 24 9 13 1023.1 - 0.0
26/10:30am 25.4 20.1 2.8 23 11.2 ESE 20 24 11 13 1023.1 - 0.0
26/10:00am 25.1 20.0 3.1 24 11.0 E 19 28 10 15 1023.2 - 0.0
26/09:30am 24.6 19.4 2.7 24 10.8 ESE 19 28 10 15 1023.1 - 0.0
26/09:00am 24.1 19.4 2.9 25 10.4 ESE 17 22 9 12 1022.9 1020.1 0.0
26/08:30am 23.5 18.8 3.4 27 10.0 ESE 17 24 9 13 1022.5 - 0.0
26/08:00am 23.3 18.1 3.3 27 9.9 ESE 20 30 11 16 1021.9 - 0.0
26/07:30am 23.8 18.1 2.6 25 10.4 E 22 39 12 21 1021.6 - 0.0
26/07:00am 23.2 17.2 3.2 27 9.9 E 24 33 13 18 1021.2 - 0.0
26/06:30am 23.2 18.0 3.7 28 9.7 ESE 20 32 11 17 1020.6 - 0.0
26/06:00am 23.4 17.5 3.9 28 9.7 ESE 24 32 13 17 1020.2 1017.3 0.0
26/05:30am 23.5 17.2 4.0 28 9.8 ESE 26 35 14 19 1019.9 - 0.0
26/05:00am 23.8 17.6 4.2 28 9.9 ESE 26 35 14 19 1019.5 - 0.0
26/04:30am 24.1 17.9 4.5 28 10.0 ESE 26 39 14 21 1019.4 - 0.0
26/04:00am 24.7 18.2 4.5 27 10.3 ESE 28 39 15 21 1019.1 - 0.0
26/03:30am 24.6 18.1 4.9 28 10.1 ESE 28 37 15 20 1019.1 - 0.0
26/03:00am 24.4 18.3 4.7 28 10.0 ESE 26 33 14 18 1019.0 1016.1 0.0
26/02:30am 24.9 19.3 5.2 28 10.2 ESE 24 33 13 18 1019.1 - 0.0
26/02:00am 25.2 19.1 4.9 27 10.5 ESE 26 33 14 18 1019.1 - 0.0
26/01:30am 25.5 19.1 5.1 27 10.6 ESE 28 39 15 21 1018.9 - 0.0
26/01:00am 25.8 19.4 5.4 27 10.6 ESE 28 37 15 20 1018.6 - 0.0
26/12:30am 26.0 19.4 6.1 28 10.5 SE 30 41 16 22 1018.8 - 0.0
26/12:00am 26.3 19.4 6.3 28 10.6 SE 32 50 17 27 1018.6 1015.8 0.0
 
Date/Time
CST
Temp
°C
App
Temp
°C
Dew
Point
Rel
Hum
%
Delta-T
°C
Wind Press
QNH
hPa
Press
MSL
hPa
Rain
since 9 am
mm
Dir
 
Spd
km/h
Gust
km/h
Spd
kts
Gust
kts
25/11:30pm 26.6 19.7 6.6 28 10.7 SE 32 43 17 23 1018.6 - 0.0
25/11:00pm 26.7 19.2 6.2 27 10.9 SE 35 46 19 25 1018.9 - 0.0
25/10:30pm 26.3 20.1 6.3 28 10.6 SE 28 37 15 20 1019.0 - 0.0
25/10:00pm 26.6 20.4 6.1 27 10.9 SSE 28 35 15 19 1019.0 - 0.0
25/09:30pm 27.2 20.6 6.0 26 11.3 SSE 30 39 16 21 1018.8 - 0.0
25/09:00pm 27.6 21.1 4.6 23 11.9 SSE 28 37 15 20 1018.6 1015.8 0.0
25/08:30pm 28.0 20.8 5.0 23 12.1 SSE 32 41 17 22 1018.2 - 0.0
25/08:00pm 28.7 22.4 5.5 23 12.3 SSE 28 37 15 20 1018.0 - 0.0
25/07:30pm 29.5 24.4 6.2 23 12.6 SSE 22 35 12 19 1017.6 - 0.0
25/07:00pm 30.6 24.7 5.8 21 13.4 SSE 26 35 14 19 1017.2 - 0.0
25/06:30pm 32.2 27.4 5.7 19 14.4 SSE 20 28 11 15 1016.8 - 0.0
25/06:00pm 33.7 29.2 6.1 18 15.2 SSE 19 30 10 16 1016.5 1013.5 0.0
25/05:30pm 34.2 30.5 6.5 18 15.4 S 15 22 8 12 1016.2 - 0.0
25/05:00pm 34.6 31.8 6.8 18 15.6 S 11 20 6 11 1016.2 - 0.0
25/04:30pm 34.3 31.8 6.6 18 15.4 SW 9 17 5 9 1016.2 - 0.0
25/04:00pm 33.9 31.3 6.3 18 15.3 SW 9 13 5 7 1016.2 - 0.0
25/03:30pm 34.6 32.5 6.8 18 15.6 E 7 17 4 9 1016.6 - 0.0
25/03:00pm 33.6 31.5 6.8 19 14.9 E 7 15 4 8 1016.9 1014.0 0.0

Other Formats:

Comma delimited format used in spreadsheet applications
http://www.bom.gov.au/fwo/IDD60801/IDD60801.94321.axf

JavaScript Object Notation format (JSON) in row-major order
http://www.bom.gov.au/fwo/IDD60801/IDD60801.94321.json